Central, New Mexico
Current Conditions -  °F | °C
As of 3:15 AM on Sunday 23 Nov 2014 (Local Time) from KSVC Reporting Station
Clear Clear  
Wind Chill: 35°   Ceiling: Unl
Heat Index: 43°   Visibility: 10mi
Dew Point: 18°   Wind: 17mph
Humidity: 36%   Direction: 320°NW
Pressure: 29.94"   Gusts: 25mph
Location:  32.8027°N, 108.161°W
Report Text: KSVC 231015Z AUTO 32015G22KT 10SM CLR 06/M08 A2994 RMK AO2
Loading
Personal Weather Stations






























Interactive Weather Map New forecast layout! Learn more

10-Day Weather Forecast

Advertisements
Track Severe Weather on mobile